Time;durP1;ratioP1;P1;durP2;ratioP2;P2;SDS_P1;SDS_P2;PMS_P1;PMS_P2;Temp;Humidity;BMP_temperature;BMP_pressure;BME280_temperature;BME280_humidity;BME280_pressure;Samples;Min_cycle;Max_cycle;Signal;HPM_P1;HPM_P2
2021/07/09 00:02:42;;;;;;;4.53;2.80;;;16.20;99.90;;;;;;5053795;28;20899;-74
2021/07/09 00:05:08;;;;;;;3.40;2.63;;;16.10;99.90;;;;;;5053294;28;20567;-74
2021/07/09 00:07:34;;;;;;;3.00;2.43;;;16.10;99.90;;;;;;5053207;28;20226;-73
2021/07/09 00:10:00;;;;;;;2.93;2.60;;;16.10;99.90;;;;;;5051001;28;20850;-71
2021/07/09 00:12:25;;;;;;;2.03;1.90;;;16.00;99.90;;;;;;5042905;28;20177;-73
2021/07/09 00:14:51;;;;;;;2.70;2.50;;;16.10;99.90;;;;;;5053368;28;20173;-73
2021/07/09 00:17:16;;;;;;;3.23;2.53;;;16.10;99.90;;;;;;5052998;28;20178;-74
2021/07/09 00:19:43;;;;;;;2.10;2.00;;;16.10;99.90;;;;;;5053285;28;20223;-73
2021/07/09 00:22:08;;;;;;;2.53;2.33;;;16.10;99.90;;;;;;5040859;28;20308;-73
2021/07/09 00:24:35;;;;;;;2.57;2.37;;;16.10;99.90;;;;;;5038145;28;20459;-73
2021/07/09 00:27:03;;;;;;;2.83;2.00;;;16.10;99.90;;;;;;5053032;28;20258;-73
2021/07/09 00:29:29;;;;;;;6.83;2.60;;;16.10;99.90;;;;;;5052715;28;20552;-73
2021/07/09 00:31:55;;;;;;;2.60;2.40;;;16.20;99.90;;;;;;5051901;28;20907;-74
2021/07/09 00:34:20;;;;;;;2.40;2.30;;;16.20;99.90;;;;;;5053189;28;20401;-74
2021/07/09 00:36:46;;;;;;;3.17;2.03;;;16.20;99.90;;;;;;5041817;28;20205;-72
2021/07/09 00:39:12;;;;;;;2.60;2.40;;;16.20;99.90;;;;;;5032437;28;20430;-73
2021/07/09 00:41:38;;;;;;;2.70;2.47;;;16.20;99.90;;;;;;5033107;28;20529;-73
2021/07/09 00:44:06;;;;;;;2.40;2.20;;;16.30;99.90;;;;;;5033147;28;20388;-72
2021/07/09 00:46:37;;;;;;;2.83;2.50;;;16.30;99.90;;;;;;5033171;28;20433;-73
2021/07/09 00:49:05;;;;;;;2.67;2.50;;;16.40;99.90;;;;;;5032509;28;20432;-73
2021/07/09 00:51:31;;;;;;;3.10;2.60;;;16.40;99.90;;;;;;5043896;28;20416;-73
2021/07/09 00:53:57;;;;;;;2.57;2.37;;;16.40;99.90;;;;;;5053116;28;20420;-72
2021/07/09 00:56:23;;;;;;;3.47;2.33;;;16.40;99.90;;;;;;5055034;28;20466;-73
2021/07/09 00:58:49;;;;;;;2.73;2.53;;;16.40;99.90;;;;;;5056402;28;20431;-73
2021/07/09 01:01:15;;;;;;;1.80;1.70;;;16.40;99.90;;;;;;5057004;28;20383;-73
2021/07/09 01:03:41;;;;;;;2.13;1.93;;;16.40;99.90;;;;;;5057155;28;20401;-73
2021/07/09 01:06:06;;;;;;;2.83;2.63;;;16.40;99.90;;;;;;5047007;28;20406;-73
2021/07/09 01:08:34;;;;;;;2.93;2.10;;;16.40;99.90;;;;;;5036425;28;20182;-72
2021/07/09 01:10:59;;;;;;;2.30;2.20;;;16.40;99.90;;;;;;5036805;28;20256;-72
2021/07/09 01:13:25;;;;;;;2.50;2.30;;;16.40;99.90;;;;;;5036816;28;20807;-73
2021/07/09 01:15:51;;;;;;;4.70;2.60;;;16.40;99.90;;;;;;5037754;28;20181;-72
2021/07/09 01:18:16;;;;;;;2.13;2.03;;;16.40;99.90;;;;;;5036456;28;20392;-74
2021/07/09 01:20:42;;;;;;;4.57;2.30;;;16.30;99.90;;;;;;5036497;28;20669;-73
2021/07/09 01:23:10;;;;;;;2.50;2.30;;;16.30;99.90;;;;;;5036480;28;20170;-74
2021/07/09 01:25:36;;;;;;;2.70;2.50;;;16.30;99.90;;;;;;5036542;28;20652;-73
2021/07/09 01:28:06;;;;;;;3.27;2.40;;;16.30;99.90;;;;;;5036111;28;20423;-72
2021/07/09 01:30:34;;;;;;;2.37;2.17;;;16.30;99.90;;;;;;5053999;28;20414;-73
2021/07/09 01:32:59;;;;;;;3.10;2.80;;;16.20;99.90;;;;;;5055001;28;20461;-73
2021/07/09 01:35:27;;;;;;;5.50;2.53;;;16.20;99.90;;;;;;5056226;28;20382;-74
2021/07/09 01:38:01;;;;;;;2.77;2.57;;;16.20;99.90;;;;;;5055798;28;20408;-72
2021/07/09 01:40:29;;;;;;;2.03;1.93;;;16.20;99.90;;;;;;5056295;28;20397;-73
2021/07/09 01:42:55;;;;;;;2.70;2.50;;;16.20;99.90;;;;;;5055999;28;20427;-73
2021/07/09 01:45:22;;;;;;;2.90;2.70;;;16.20;99.90;;;;;;5037102;28;20458;-73
2021/07/09 01:47:49;;;;;;;2.67;2.47;;;16.20;99.90;;;;;;5052817;28;20394;-73
2021/07/09 01:50:16;;;;;;;3.63;2.93;;;16.20;99.90;;;;;;5055798;28;20410;-72
2021/07/09 01:52:41;;;;;;;2.10;2.00;;;16.10;99.90;;;;;;5055947;28;20404;-75
2021/07/09 01:55:08;;;;;;;5.20;2.60;;;16.10;99.90;;;;;;5055972;28;20431;-73
2021/07/09 01:57:34;;;;;;;2.50;1.90;;;16.10;99.90;;;;;;5055297;28;20189;-73
2021/07/09 02:00:00;;;;;;;2.37;2.17;;;16.10;99.90;;;;;;5055408;28;20410;-73
2021/07/09 02:02:26;;;;;;;6.53;3.10;;;16.10;99.90;;;;;;5055822;28;20383;-72
2021/07/09 02:04:56;;;;;;;2.73;2.53;;;16.10;99.90;;;;;;5055249;28;20450;-72
2021/07/09 02:07:25;;;;;;;3.43;2.40;;;16.10;99.90;;;;;;5053891;28;20491;-72
2021/07/09 02:09:58;;;;;;;2.93;2.30;;;16.10;99.90;;;;;;5055387;28;20435;-72
2021/07/09 02:12:26;;;;;;;3.20;2.90;;;16.10;99.90;;;;;;5055729;28;20462;-73
2021/07/09 02:14:52;;;;;;;3.93;2.63;;;16.10;99.90;;;;;;5055597;28;20405;-73
2021/07/09 02:17:21;;;;;;;3.37;3.17;;;16.10;99.90;;;;;;5040228;28;20781;-73
2021/07/09 02:19:48;;;;;;;2.70;2.47;;;16.10;99.90;;;;;;5035478;28;20403;-73
2021/07/09 02:22:15;;;;;;;3.30;2.97;;;16.10;99.90;;;;;;5035625;28;20413;-73
2021/07/09 02:24:43;;;;;;;3.13;2.93;;;16.10;99.90;;;;;;5033932;28;20927;-73
2021/07/09 02:27:09;;;;;;;2.83;2.63;;;16.10;99.90;;;;;;5034905;28;20405;-75
2021/07/09 02:29:36;;;;;;;3.00;2.80;;;16.10;99.90;;;;;;5035156;28;20786;-73
2021/07/09 02:32:05;;;;;;;2.53;2.33;;;16.10;99.90;;;;;;5049658;28;20412;-73
2021/07/09 02:34:31;;;;;;;3.00;2.80;;;16.10;99.90;;;;;;5054739;28;20402;-74
2021/07/09 02:36:57;;;;;;;3.00;2.80;;;16.10;99.90;;;;;;5055271;28;20706;-74
2021/07/09 02:39:27;;;;;;;3.23;2.80;;;16.20;99.90;;;;;;5054683;28;20397;-74
2021/07/09 02:41:54;;;;;;;2.57;2.37;;;16.20;99.90;;;;;;5055200;28;20390;-73
2021/07/09 02:44:20;;;;;;;3.73;2.80;;;16.20;99.90;;;;;;5053661;28;20423;-73
2021/07/09 02:46:46;;;;;;;2.73;2.50;;;16.10;99.90;;;;;;5040270;28;20453;-73
2021/07/09 02:49:12;;;;;;;2.87;2.67;;;16.10;99.90;;;;;;5033159;28;20578;-74
2021/07/09 02:51:37;;;;;;;2.63;2.43;;;16.10;99.90;;;;;;5034885;28;20193;-74
2021/07/09 02:54:03;;;;;;;2.97;2.77;;;16.10;99.90;;;;;;5035003;28;20236;-74
2021/07/09 02:56:29;;;;;;;3.30;3.00;;;16.10;99.90;;;;;;5034893;28;20580;-74
2021/07/09 02:58:55;;;;;;;2.63;2.43;;;16.10;99.90;;;;;;5034500;28;20414;-73
2021/07/09 03:01:21;;;;;;;2.50;2.30;;;16.10;99.90;;;;;;5034652;28;20424;-74
2021/07/09 03:03:47;;;;;;;2.40;2.23;;;16.10;99.90;;;;;;5033465;28;20293;-73
2021/07/09 03:06:12;;;;;;;2.70;2.50;;;16.10;99.90;;;;;;5034701;28;20197;-74
2021/07/09 03:08:38;;;;;;;3.20;2.93;;;16.10;99.90;;;;;;5034102;28;20577;-73
2021/07/09 03:11:03;;;;;;;2.70;2.50;;;16.10;99.90;;;;;;5035034;28;20237;-74
2021/07/09 03:13:29;;;;;;;2.03;1.93;;;16.10;99.90;;;;;;5033251;28;20217;-73
2021/07/09 03:15:55;;;;;;;4.10;2.87;;;16.10;99.90;;;;;;5047734;28;20180;-74
2021/07/09 03:18:20;;;;;;;2.33;2.23;;;16.10;99.90;;;;;;5053156;28;20523;-74
2021/07/09 03:20:46;;;;;;;3.37;3.10;;;16.10;99.90;;;;;;5052884;28;20288;-73
2021/07/09 03:23:12;;;;;;;2.87;2.67;;;16.10;99.90;;;;;;5054391;28;20169;-73
2021/07/09 03:25:38;;;;;;;2.70;2.50;;;16.10;99.90;;;;;;5054316;28;20278;-74
2021/07/09 03:28:04;;;;;;;5.00;4.00;;;16.10;99.90;;;;;;5053834;28;20934;-72
2021/07/09 03:30:29;;;;;;;4.70;2.90;;;16.10;99.90;;;;;;5053840;28;20197;-74
2021/07/09 03:32:55;;;;;;;2.30;2.10;;;16.10;99.90;;;;;;5035454;28;20174;-74
2021/07/09 03:35:21;;;;;;;3.23;2.80;;;16.10;99.90;;;;;;5034227;28;20177;-74
2021/07/09 03:37:46;;;;;;;3.30;2.83;;;16.00;99.90;;;;;;5033724;28;20635;-73
2021/07/09 03:40:12;;;;;;;3.30;3.00;;;16.00;99.90;;;;;;5034057;28;20280;-72
2021/07/09 03:42:38;;;;;;;3.03;2.50;;;16.00;99.90;;;;;;5034018;28;20169;-72
2021/07/09 03:45:05;;;;;;;3.40;3.13;;;16.00;99.90;;;;;;5046140;28;20558;-72
2021/07/09 03:47:31;;;;;;;2.50;2.30;;;16.00;99.90;;;;;;5053631;28;20404;-73
2021/07/09 03:49:57;;;;;;;4.00;3.20;;;16.00;99.90;;;;;;5053695;28;20542;-73
2021/07/09 03:52:22;;;;;;;6.80;4.00;;;16.00;99.90;;;;;;5053869;28;20177;-72
2021/07/09 03:54:48;;;;;;;3.43;3.13;;;16.00;99.90;;;;;;5053883;28;20566;-73
2021/07/09 03:57:14;;;;;;;2.93;2.73;;;16.00;99.90;;;;;;5051952;28;20284;-73
2021/07/09 03:59:39;;;;;;;6.23;3.37;;;16.00;99.90;;;;;;5042401;28;20202;-73
2021/07/09 04:02:05;;;;;;;2.67;2.47;;;16.00;99.90;;;;;;5033784;28;20249;-73
2021/07/09 04:04:31;;;;;;;3.20;2.90;;;15.90;99.90;;;;;;5033742;28;20174;-73
2021/07/09 04:06:56;;;;;;;2.87;2.30;;;15.90;99.90;;;;;;5033528;28;20170;-72
2021/07/09 04:09:22;;;;;;;3.60;2.97;;;15.90;99.90;;;;;;5033085;28;20224;-73
2021/07/09 04:11:48;;;;;;;3.27;2.97;;;15.90;99.90;;;;;;5033689;28;20170;-73
2021/07/09 04:14:14;;;;;;;3.17;2.50;;;15.90;99.90;;;;;;5042715;28;20180;-73
2021/07/09 04:16:39;;;;;;;2.70;2.50;;;15.80;99.90;;;;;;5053685;28;20440;-74
2021/07/09 04:19:05;;;;;;;3.63;3.33;;;15.80;99.90;;;;;;5052946;28;20223;-73
2021/07/09 04:21:31;;;;;;;3.87;3.40;;;15.80;99.90;;;;;;5053364;28;20169;-73
2021/07/09 04:23:56;;;;;;;2.97;2.77;;;15.80;99.90;;;;;;5053273;28;20528;-74
2021/07/09 04:26:22;;;;;;;3.43;3.13;;;15.80;99.90;;;;;;5047173;28;20205;-73
2021/07/09 04:28:47;;;;;;;3.47;3.17;;;15.80;99.90;;;;;;5036477;28;20225;-73
2021/07/09 04:31:13;;;;;;;2.67;2.37;;;15.80;99.90;;;;;;5052609;28;20177;-73
2021/07/09 04:33:39;;;;;;;4.70;2.97;;;15.80;99.90;;;;;;5053133;28;20627;-73
2021/07/09 04:36:05;;;;;;;3.47;3.17;;;15.80;99.90;;;;;;5053296;28;20223;-73
2021/07/09 04:38:31;;;;;;;3.53;3.23;;;15.80;99.90;;;;;;5052728;28;20403;-72
2021/07/09 04:40:56;;;;;;;3.83;3.50;;;15.80;99.90;;;;;;5052831;28;20434;-72
2021/07/09 04:43:22;;;;;;;2.73;2.53;;;15.80;99.90;;;;;;5053229;28;20616;-73
2021/07/09 04:45:47;;;;;;;3.83;3.53;;;15.80;99.90;;;;;;5053081;28;20201;-72
2021/07/09 04:48:13;;;;;;;3.40;3.10;;;15.70;99.90;;;;;;5052801;28;20176;-72
2021/07/09 04:50:39;;;;;;;3.73;3.43;;;15.70;99.90;;;;;;5053155;28;20667;-72
2021/07/09 04:53:04;;;;;;;4.50;3.70;;;15.70;99.90;;;;;;5053114;28;20261;-72
2021/07/09 04:55:30;;;;;;;6.67;3.20;;;15.70;99.90;;;;;;5049115;28;20213;-72
2021/07/09 04:57:56;;;;;;;4.60;2.70;;;15.70;99.90;;;;;;5032684;28;20193;-73
2021/07/09 05:00:21;;;;;;;3.37;3.07;;;15.70;99.90;;;;;;5031782;28;20745;-73
2021/07/09 05:02:47;;;;;;;3.67;3.37;;;15.60;99.90;;;;;;5033230;28;20247;-72
2021/07/09 05:05:15;;;;;;;3.17;2.93;;;15.60;99.90;;;;;;5033029;28;20229;-72
2021/07/09 05:07:41;;;;;;;3.63;2.83;;;15.60;99.90;;;;;;5032658;28;20174;-72
2021/07/09 05:10:08;;;;;;;3.10;2.87;;;15.70;99.90;;;;;;5032844;28;20420;-72
2021/07/09 05:12:34;;;;;;;3.50;3.20;;;15.60;99.90;;;;;;5032940;28;20386;-72
2021/07/09 05:15:00;;;;;;;3.80;3.50;;;15.60;99.90;;;;;;5032895;28;20383;-73
2021/07/09 05:17:26;;;;;;;4.03;2.60;;;15.60;99.90;;;;;;5032608;28;20757;-73
2021/07/09 05:19:52;;;;;;;4.60;3.50;;;15.60;99.90;;;;;;5032911;28;20436;-73
2021/07/09 05:22:22;;;;;;;4.13;3.80;;;15.60;99.90;;;;;;5032745;28;20181;-73
2021/07/09 05:24:48;;;;;;;4.27;3.30;;;15.60;99.90;;;;;;5033188;28;20459;-72
2021/07/09 05:27:15;;;;;;;4.03;3.57;;;15.60;99.90;;;;;;5052460;28;20386;-73
2021/07/09 05:29:41;;;;;;;3.30;3.00;;;15.60;99.90;;;;;;5052826;28;20427;-73
2021/07/09 05:32:08;;;;;;;4.20;3.90;;;15.60;99.90;;;;;;5052495;28;20407;-73
2021/07/09 05:34:35;;;;;;;4.83;3.07;;;15.70;99.90;;;;;;5051141;28;20465;-72
2021/07/09 05:37:01;;;;;;;11.03;3.87;;;15.70;99.90;;;;;;5052623;28;20403;-73
2021/07/09 05:39:27;;;;;;;4.63;4.00;;;15.80;99.90;;;;;;5051662;28;20409;-73
2021/07/09 05:41:52;;;;;;;3.40;3.10;;;15.80;99.90;;;;;;5053219;28;20459;-73
2021/07/09 05:44:18;;;;;;;3.70;3.50;;;15.80;99.90;;;;;;5056713;28;20165;-73
2021/07/09 05:46:44;;;;;;;3.30;3.00;;;15.90;99.90;;;;;;5058709;28;20197;-73
2021/07/09 05:49:09;;;;;;;5.87;3.30;;;16.00;99.90;;;;;;5057302;28;20619;-72
2021/07/09 05:51:35;;;;;;;4.50;3.13;;;16.00;99.90;;;;;;5049373;28;20235;-73
2021/07/09 05:54:00;;;;;;;3.30;3.10;;;16.00;99.90;;;;;;5052015;28;20636;-73
2021/07/09 05:56:26;;;;;;;3.30;3.03;;;16.00;99.90;;;;;;5056013;28;20170;-74
2021/07/09 05:58:52;;;;;;;3.33;2.70;;;16.00;99.90;;;;;;5054982;28;20201;-72
2021/07/09 06:01:17;;;;;;;3.80;3.37;;;16.00;99.90;;;;;;5056051;28;20173;-72
2021/07/09 06:03:43;;;;;;;4.57;3.20;;;16.00;99.90;;;;;;5052065;28;20640;-73
2021/07/09 06:06:09;;;;;;;3.40;3.10;;;16.00;99.90;;;;;;5044779;28;20197;-73
2021/07/09 06:08:34;;;;;;;2.97;2.67;;;16.00;99.90;;;;;;5055228;28;20161;-72
2021/07/09 06:11:00;;;;;;;2.77;2.57;;;16.00;99.90;;;;;;5055617;28;20173;-72
2021/07/09 06:13:25;;;;;;;3.50;3.20;;;16.00;99.90;;;;;;5050244;28;20176;-72
2021/07/09 06:15:51;;;;;;;3.60;3.40;;;16.00;99.90;;;;;;5054803;28;20173;-71
2021/07/09 06:18:18;;;;;;;2.60;2.40;;;16.00;99.90;;;;;;5055009;28;20232;-71
2021/07/09 06:20:43;;;;;;;3.30;3.00;;;16.00;99.90;;;;;;5054514;28;20206;-71
2021/07/09 06:23:09;;;;;;;3.37;3.07;;;16.10;99.90;;;;;;5055668;28;20792;-72
2021/07/09 06:25:35;;;;;;;3.83;3.50;;;16.10;99.90;;;;;;5055186;28;20193;-71
2021/07/09 06:28:00;;;;;;;3.43;3.03;;;16.20;99.90;;;;;;5054894;28;20166;-73
2021/07/09 06:30:26;;;;;;;2.90;2.70;;;16.20;99.90;;;;;;5055245;28;20192;-71
2021/07/09 06:32:52;;;;;;;3.53;3.13;;;16.20;99.90;;;;;;5055240;28;20632;-71
2021/07/09 06:35:17;;;;;;;3.10;2.80;;;16.30;99.90;;;;;;5053849;28;20204;-71
2021/07/09 06:37:44;;;;;;;4.73;4.30;;;16.30;99.90;;;;;;5034720;28;20648;-70
2021/07/09 06:40:11;;;;;;;3.33;3.00;;;16.40;99.90;;;;;;5034946;28;20313;-71
2021/07/09 06:42:37;;;;;;;4.77;3.50;;;16.40;99.90;;;;;;5046824;28;20750;-69
2021/07/09 06:45:04;;;;;;;3.40;3.10;;;16.40;99.90;;;;;;5036667;28;20514;-68
2021/07/09 06:47:30;;;;;;;3.10;2.90;;;16.40;99.90;;;;;;5054740;28;20469;-69
2021/07/09 06:49:55;;;;;;;3.63;3.33;;;16.40;99.90;;;;;;5054765;28;20509;-69
2021/07/09 06:52:21;;;;;;;3.50;3.20;;;16.40;99.90;;;;;;5054694;28;20169;-70
2021/07/09 06:54:47;;;;;;;4.60;4.10;;;16.40;99.90;;;;;;5054039;28;20296;-68
2021/07/09 06:57:12;;;;;;;4.27;3.87;;;16.40;99.90;;;;;;5039057;28;20205;-67
2021/07/09 06:59:38;;;;;;;3.40;3.10;;;16.40;99.90;;;;;;5034520;28;20197;-67
2021/07/09 07:02:04;;;;;;;3.87;3.57;;;16.40;99.90;;;;;;5034520;28;20176;-67
2021/07/09 07:04:29;;;;;;;3.67;3.37;;;16.40;99.90;;;;;;5034565;28;20241;-67
2021/07/09 07:06:55;;;;;;;4.30;3.33;;;16.40;99.90;;;;;;5034622;28;20548;-68
2021/07/09 07:09:21;;;;;;;5.40;4.90;;;16.40;99.90;;;;;;5034006;28;20233;-67
2021/07/09 07:11:47;;;;;;;3.70;3.20;;;16.50;99.90;;;;;;5047640;28;20224;-67
2021/07/09 07:14:14;;;;;;;3.37;3.17;;;16.60;99.90;;;;;;5054137;28;20217;-68
2021/07/09 07:16:39;;;;;;;4.10;3.80;;;16.70;99.90;;;;;;5054451;28;20473;-69
2021/07/09 07:19:05;;;;;;;3.67;3.37;;;16.80;99.90;;;;;;5052359;28;20297;-68
2021/07/09 07:21:30;;;;;;;3.50;3.20;;;16.90;99.90;;;;;;5054230;28;20740;-71
2021/07/09 07:23:56;;;;;;;4.10;3.53;;;17.00;99.90;;;;;;5054308;28;20189;-72
2021/07/09 07:26:22;;;;;;;3.60;3.30;;;17.00;99.90;;;;;;5053326;28;20230;-69
2021/07/09 07:28:47;;;;;;;5.40;3.23;;;17.10;99.90;;;;;;5053539;28;20195;-69
2021/07/09 07:31:13;;;;;;;5.97;3.80;;;17.10;99.90;;;;;;5049295;28;20168;-68
2021/07/09 07:33:40;;;;;;;3.03;2.80;;;17.30;99.90;;;;;;5034267;28;20174;-67
2021/07/09 07:36:06;;;;;;;4.83;4.40;;;17.40;99.90;;;;;;5032766;28;20206;-67
2021/07/09 07:38:32;;;;;;;3.73;3.43;;;17.40;99.90;;;;;;5033672;28;20393;-66
2021/07/09 07:40:57;;;;;;;6.03;2.87;;;17.50;99.90;;;;;;5034188;28;20432;-66
2021/07/09 07:43:23;;;;;;;2.90;2.60;;;17.60;99.90;;;;;;5033798;28;20188;-67
2021/07/09 07:45:49;;;;;;;5.10;4.20;;;17.80;99.90;;;;;;5036612;28;20204;-67
2021/07/09 07:48:15;;;;;;;3.10;2.80;;;17.80;99.90;;;;;;5053405;28;20176;-67
2021/07/09 07:50:40;;;;;;;4.50;3.87;;;18.00;99.90;;;;;;5053382;28;20197;-66
2021/07/09 07:53:06;;;;;;;3.90;3.60;;;18.10;99.90;;;;;;5053817;28;20162;-66
2021/07/09 07:55:32;;;;;;;3.47;3.17;;;18.20;99.90;;;;;;5053799;28;20275;-67
2021/07/09 07:57:57;;;;;;;3.77;3.33;;;18.20;99.90;;;;;;5052987;28;20573;-67
2021/07/09 08:00:23;;;;;;;3.87;3.57;;;18.20;99.90;;;;;;5053132;28;20196;-67
2021/07/09 08:02:49;;;;;;;3.57;3.27;;;18.30;99.90;;;;;;5053269;28;20220;-67
2021/07/09 08:05:15;;;;;;;5.77;3.50;;;18.30;99.90;;;;;;5052708;28;20204;-68
2021/07/09 08:07:41;;;;;;;4.70;3.60;;;18.40;99.90;;;;;;5052957;28;20173;-69
2021/07/09 08:10:08;;;;;;;3.50;3.30;;;18.50;99.90;;;;;;5053163;28;20419;-69
2021/07/09 08:12:33;;;;;;;3.20;2.90;;;18.60;99.90;;;;;;5038335;28;20447;-69
2021/07/09 08:14:59;;;;;;;4.03;3.40;;;18.60;99.90;;;;;;5033192;28;20411;-68
2021/07/09 08:17:25;;;;;;;3.77;3.47;;;18.60;99.90;;;;;;5031397;28;20188;-67
2021/07/09 08:19:51;;;;;;;3.17;2.87;;;18.60;99.90;;;;;;5033166;28;20403;-67
2021/07/09 08:22:16;;;;;;;3.63;3.30;;;18.60;99.90;;;;;;5033345;28;20269;-66
2021/07/09 08:24:42;;;;;;;3.47;3.17;;;18.60;99.90;;;;;;5033372;28;20585;-65
2021/07/09 08:27:08;;;;;;;3.90;3.13;;;18.70;99.90;;;;;;5033089;28;20166;-67
2021/07/09 08:29:33;;;;;;;6.70;4.50;;;18.70;99.90;;;;;;5033274;28;20548;-66
2021/07/09 08:31:59;;;;;;;3.57;3.23;;;18.80;99.90;;;;;;5036960;28;20173;-65
2021/07/09 08:34:25;;;;;;;10.60;3.67;;;18.90;99.90;;;;;;5050606;28;20184;-65
2021/07/09 08:36:51;;;;;;;4.23;3.83;;;19.00;99.90;;;;;;5053160;28;20397;-66
2021/07/09 08:39:17;;;;;;;5.40;4.13;;;19.10;99.90;;;;;;5038094;28;20239;-65
2021/07/09 08:41:44;;;;;;;4.97;4.33;;;19.20;99.90;;;;;;5040305;28;20510;-66
2021/07/09 08:44:11;;;;;;;5.67;3.80;;;19.30;99.90;;;;;;5051037;28;20432;-65
2021/07/09 08:46:38;;;;;;;4.03;3.60;;;19.30;99.90;;;;;;5044463;28;20858;-69
2021/07/09 08:49:07;;;;;;;3.60;2.67;;;19.50;99.90;;;;;;5031854;28;20443;-65
2021/07/09 08:51:33;;;;;;;3.43;2.90;;;19.60;99.90;;;;;;5034039;28;20447;-65
2021/07/09 08:54:02;;;;;;;3.90;3.60;;;19.80;99.90;;;;;;5033162;28;20391;-66
2021/07/09 08:56:28;;;;;;;3.90;3.43;;;20.00;99.90;;;;;;5040005;28;20409;-66
2021/07/09 08:58:53;;;;;;;3.70;3.20;;;20.20;99.90;;;;;;5050025;28;20435;-66
2021/07/09 09:01:19;;;;;;;3.22;2.92;;;20.40;99.90;;;;;;5051240;28;20458;-67
2021/07/09 09:03:45;;;;;;;3.30;3.10;;;20.80;99.90;;;;;;5051610;28;20198;-67
2021/07/09 09:06:15;;;;;;;3.43;3.20;;;21.00;99.90;;;;;;5033144;28;20208;-70
2021/07/09 09:08:42;;;;;;;3.60;3.30;;;21.30;99.90;;;;;;5032601;28;20440;-68
2021/07/09 09:11:08;;;;;;;2.90;2.70;;;21.40;99.90;;;;;;5051128;28;20764;-68
2021/07/09 09:13:36;;;;;;;3.87;3.20;;;21.70;99.90;;;;;;5052940;28;20378;-68
2021/07/09 09:16:10;;;;;;;3.60;3.30;;;22.10;99.90;;;;;;5041888;28;20180;-69
2021/07/09 09:18:39;;;;;;;3.83;3.50;;;22.60;99.90;;;;;;5048212;28;20504;-68
2021/07/09 09:21:21;;;;;;;3.50;3.23;;;22.90;99.90;;;;;;5051448;28;20525;-68
2021/07/09 09:23:50;;;;;;;3.20;3.00;;;23.10;99.90;;;;;;5056567;28;20742;-68
2021/07/09 09:26:53;;;;;;;3.13;2.93;;;23.80;99.90;;;;;;5049258;28;20480;-70
2021/07/09 09:29:25;;;;;;;4.10;3.80;;;24.60;99.90;;;;;;5036108;28;20420;-69
2021/07/09 09:31:54;;;;;;;3.23;2.87;;;25.30;99.90;;;;;;5046193;28;20444;-68
2021/07/09 09:34:44;;;;;;;3.27;3.00;;;25.50;99.90;;;;;;5045890;28;20420;-70
2021/07/09 09:37:12;;;;;;;3.27;3.07;;;25.70;99.90;;;;;;5049208;28;20533;-69
2021/07/09 09:39:42;;;;;;;4.40;3.50;;;26.00;99.90;;;;;;5055457;28;20929;-68
2021/07/09 09:42:18;;;;;;;3.37;3.17;;;26.00;99.90;;;;;;5036751;28;20413;-70
2021/07/09 09:44:49;;;;;;;3.13;2.93;;;25.80;99.90;;;;;;5036628;28;20881;-69
2021/07/09 09:47:19;;;;;;;3.53;3.30;;;25.70;99.90;;;;;;5055501;28;20461;-69
2021/07/09 09:49:53;;;;;;;3.60;3.30;;;25.60;99.90;;;;;;5055810;28;20431;-69
2021/07/09 09:52:39;;;;;;;3.50;3.30;;;25.60;99.90;;;;;;5055826;28;20408;-69
2021/07/09 09:55:10;;;;;;;3.37;3.07;;;25.50;99.90;;;;;;5049759;28;20413;-67
2021/07/09 09:57:37;;;;;;;3.43;3.13;;;25.20;99.90;;;;;;5042210;28;20403;-70
2021/07/09 10:00:09;;;;;;;3.63;3.43;;;25.10;99.90;;;;;;5034380;28;20418;-69
2021/07/09 10:02:36;;;;;;;3.47;3.20;;;25.10;99.90;;;;;;5034748;28;20383;-71
2021/07/09 10:05:03;;;;;;;3.43;3.13;;;25.10;99.90;;;;;;5035673;28;20435;-70
2021/07/09 10:07:32;;;;;;;4.50;3.23;;;25.10;99.90;;;;;;5035378;28;20383;-71
2021/07/09 10:09:59;;;;;;;4.10;3.80;;;25.10;99.90;;;;;;5035408;28;20407;-69
2021/07/09 10:12:27;;;;;;;3.10;2.90;;;25.10;99.90;;;;;;5035652;28;20408;-69
2021/07/09 10:14:54;;;;;;;3.07;2.77;;;25.30;99.90;;;;;;5035758;28;20424;-70
2021/07/09 10:17:24;;;;;;;3.53;3.23;;;25.40;99.90;;;;;;5035340;28;20441;-68
2021/07/09 10:19:52;;;;;;;4.03;3.73;;;25.30;99.90;;;;;;5035374;28;20778;-69
2021/07/09 10:22:18;;;;;;;3.17;2.97;;;25.20;99.90;;;;;;5036064;28;20418;-70
2021/07/09 10:24:46;;;;;;;3.13;2.83;;;25.10;99.90;;;;;;5035514;28;20400;-70
2021/07/09 10:27:13;;;;;;;3.60;3.27;;;25.00;99.90;;;;;;5034978;28;20197;-70
2021/07/09 10:29:44;;;;;;;3.27;3.07;;;25.00;99.90;;;;;;5039966;28;20471;-70
2021/07/09 10:32:11;;;;;;;4.40;3.00;;;25.10;99.90;;;;;;5055363;28;20426;-70
2021/07/09 10:34:38;;;;;;;3.27;3.07;;;25.30;99.90;;;;;;5055496;28;20845;-71
2021/07/09 10:37:17;;;;;;;3.00;2.80;;;25.30;99.90;;;;;;5055033;28;20896;-70
2021/07/09 10:39:45;;;;;;;4.10;3.40;;;25.90;99.90;;;;;;5055179;28;20424;-70
2021/07/09 10:42:15;;;;;;;3.43;3.00;;;26.40;99.90;;;;;;5055276;28;20404;-70
2021/07/09 10:45:08;;;;;;;3.50;3.27;;;26.80;99.90;;;;;;5045558;28;20475;-69
2021/07/09 10:47:40;;;;;;;3.63;3.33;;;26.70;99.00;;;;;;5042490;28;20413;-69
2021/07/09 10:50:08;;;;;;;2.90;2.70;;;26.70;99.10;;;;;;5034940;28;20440;-69
2021/07/09 10:53:00;;;;;;;5.20;3.60;;;26.60;98.60;;;;;;5034724;28;20455;-69
2021/07/09 10:55:28;;;;;;;3.40;3.10;;;27.10;98.00;;;;;;5033648;28;21076;-69
2021/07/09 10:58:09;;;;;;;3.87;3.17;;;27.70;98.70;;;;;;5034106;28;20523;-68
2021/07/09 11:01:05;;;;;;;4.67;3.63;;;28.20;96.80;;;;;;5041735;28;20489;-69
2021/07/09 11:03:40;;;;;;;3.27;3.07;;;28.80;97.20;;;;;;5053794;28;20390;-70
2021/07/09 11:06:09;;;;;;;3.13;2.93;;;29.40;95.60;;;;;;5054598;28;20841;-72
2021/07/09 11:08:39;;;;;;;4.67;4.27;;;29.70;94.40;;;;;;5054029;28;20378;-73
2021/07/09 11:11:27;;;;;;;3.27;3.07;;;29.80;94.50;;;;;;5054436;28;20410;-69
2021/07/09 11:13:59;;;;;;;3.17;2.97;;;29.70;93.90;;;;;;5053747;28;20412;-70
2021/07/09 11:16:26;;;;;;;5.83;3.53;;;29.20;94.10;;;;;;5053735;28;20417;-71
2021/07/09 11:18:55;;;;;;;3.23;3.03;;;28.80;93.30;;;;;;5049601;28;20403;-71
2021/07/09 11:21:32;;;;;;;4.10;3.80;;;28.40;94.10;;;;;;5041205;28;20492;-71
2021/07/09 11:24:03;;;;;;;2.97;2.77;;;27.90;96.10;;;;;;5042575;28;20716;-71
2021/07/09 11:26:36;;;;;;;3.20;3.00;;;27.40;96.60;;;;;;5043017;28;20494;-71
2021/07/09 11:29:24;;;;;;;3.50;3.20;;;27.20;98.00;;;;;;5042547;28;20490;-70
2021/07/09 11:31:52;;;;;;;4.40;4.00;;;26.90;96.90;;;;;;5034109;28;20428;-71
2021/07/09 11:34:20;;;;;;;3.67;3.47;;;26.60;96.00;;;;;;5034029;28;20405;-70
2021/07/09 11:36:54;;;;;;;3.90;3.60;;;26.30;97.30;;;;;;5033777;28;20470;-70
2021/07/09 11:39:30;;;;;;;4.27;3.53;;;26.10;98.20;;;;;;5033470;28;20405;-70
2021/07/09 11:42:07;;;;;;;4.97;3.73;;;26.00;97.40;;;;;;5032776;28;20555;-70
2021/07/09 11:44:43;;;;;;;4.40;4.00;;;25.80;98.20;;;;;;5033973;28;20402;-70
2021/07/09 11:47:13;;;;;;;4.50;4.10;;;25.70;98.60;;;;;;5033301;28;20466;-72
2021/07/09 11:49:55;;;;;;;3.80;3.50;;;25.50;98.40;;;;;;5033490;28;20435;-71
2021/07/09 11:52:29;;;;;;;5.70;4.30;;;25.30;99.20;;;;;;5033408;28;20392;-69
2021/07/09 11:54:57;;;;;;;4.47;4.07;;;25.10;98.20;;;;;;5033706;28;20772;-69
2021/07/09 11:57:31;;;;;;;4.90;4.30;;;25.00;99.90;;;;;;5033295;28;20415;-70
2021/07/09 12:00:00;;;;;;;4.90;4.47;;;24.90;99.90;;;;;;5033909;28;20894;-71
2021/07/09 12:02:30;;;;;;;5.10;4.70;;;24.70;99.70;;;;;;5033568;28;20749;-71
2021/07/09 12:05:04;;;;;;;4.53;4.13;;;24.80;99.90;;;;;;5033837;28;20426;-70
2021/07/09 12:07:30;;;;;;;6.20;5.60;;;24.70;99.50;;;;;;5033266;28;20429;-69
2021/07/09 12:10:07;;;;;;;4.90;4.40;;;24.60;99.90;;;;;;5033597;28;20425;-69
2021/07/09 12:12:43;;;;;;;4.97;4.53;;;24.50;99.90;;;;;;5034665;28;20416;-71
2021/07/09 12:15:13;;;;;;;6.00;5.07;;;24.20;99.80;;;;;;5053005;28;20411;-71
2021/07/09 12:17:39;;;;;;;6.07;5.57;;;24.00;99.90;;;;;;5034004;28;20756;-71
2021/07/09 12:20:11;;;;;;;5.73;4.87;;;23.80;99.90;;;;;;5033331;28;20410;-72
2021/07/09 12:22:50;;;;;;;5.67;5.00;;;23.70;99.90;;;;;;5033521;28;20174;-72
2021/07/09 12:25:27;;;;;;;5.83;5.23;;;23.60;99.90;;;;;;5033502;28;20430;-72
2021/07/09 12:27:58;;;;;;;6.40;5.80;;;23.70;99.90;;;;;;5040324;28;20391;-72
2021/07/09 12:30:27;;;;;;;5.53;5.03;;;23.80;99.90;;;;;;5053331;28;20398;-70
2021/07/09 12:32:59;;;;;;;6.07;5.27;;;24.10;99.90;;;;;;5053229;28;20945;-71
2021/07/09 12:35:25;;;;;;;7.13;6.53;;;24.40;99.90;;;;;;5052761;28;20590;-71
2021/07/09 12:38:03;;;;;;;5.50;5.10;;;24.60;99.90;;;;;;5034380;28;20396;-71
2021/07/09 12:40:35;;;;;;;5.53;5.13;;;24.70;99.90;;;;;;5033101;28;20408;-71
2021/07/09 12:43:21;;;;;;;5.57;5.13;;;24.90;99.90;;;;;;5031403;28;20443;-70
2021/07/09 12:46:06;;;;;;;5.87;5.27;;;24.80;99.90;;;;;;5031102;28;20943;-71
2021/07/09 12:48:38;;;;;;;5.27;4.77;;;24.80;99.90;;;;;;5030800;28;20391;-72
2021/07/09 12:51:26;;;;;;;5.70;5.20;;;24.60;99.90;;;;;;5031404;28;20392;-71
2021/07/09 12:54:01;;;;;;;7.20;4.97;;;24.30;99.90;;;;;;5035328;28;20383;-72